sensor_id;sensor_type;location;lat;lon;timestamp;pressure;altitude;pressure_sealevel;temperature;humidity
15670;BME280;18524;45.190;5.732;2022-09-09T00:02:27;99013.56;;;22.50;60.09
15670;BME280;18524;45.190;5.732;2022-09-09T00:07:24;99013.38;;;22.58;61.01
15670;BME280;18524;45.190;5.732;2022-09-09T00:12:29;99015.44;;;22.56;61.56
15670;BME280;18524;45.190;5.732;2022-09-09T00:17:47;99020.56;;;22.44;60.52
15670;BME280;18524;45.190;5.732;2022-09-09T00:22:47;99016.84;;;22.45;60.35
15670;BME280;18524;45.190;5.732;2022-09-09T00:27:48;99016.03;;;22.51;60.35
15670;BME280;18524;45.190;5.732;2022-09-09T00:32:40;99012.34;;;22.45;61.33
15670;BME280;18524;45.190;5.732;2022-09-09T00:37:32;99013.34;;;22.31;61.15
15670;BME280;18524;45.190;5.732;2022-09-09T00:42:25;99016.25;;;22.43;62.46
15670;BME280;18524;45.190;5.732;2022-09-09T00:57:40;99023.50;;;22.01;61.53
15670;BME280;18524;45.190;5.732;2022-09-09T01:07:25;99015.59;;;21.87;60.83
15670;BME280;18524;45.190;5.732;2022-09-09T01:12:23;99012.25;;;21.71;61.31
15670;BME280;18524;45.190;5.732;2022-09-09T01:17:33;99018.44;;;21.72;62.42
15670;BME280;18524;45.190;5.732;2022-09-09T01:27:27;99020.47;;;21.70;63.85
15670;BME280;18524;45.190;5.732;2022-09-09T01:32:41;99017.38;;;21.66;64.38
15670;BME280;18524;45.190;5.732;2022-09-09T01:37:32;99019.69;;;21.76;64.05
15670;BME280;18524;45.190;5.732;2022-09-09T01:42:23;99023.41;;;21.81;64.46
15670;BME280;18524;45.190;5.732;2022-09-09T01:47:14;99018.06;;;21.81;66.45
15670;BME280;18524;45.190;5.732;2022-09-09T02:03:06;99032.41;;;21.74;68.32
15670;BME280;18524;45.190;5.732;2022-09-09T02:08:11;99040.38;;;21.33;68.43
15670;BME280;18524;45.190;5.732;2022-09-09T02:13:10;99048.19;;;21.34;70.25
15670;BME280;18524;45.190;5.732;2022-09-09T02:18:04;99041.25;;;21.40;71.68
15670;BME280;18524;45.190;5.732;2022-09-09T02:22:58;99039.59;;;21.17;72.54
15670;BME280;18524;45.190;5.732;2022-09-09T02:27:50;99038.28;;;21.07;73.13
15670;BME280;18524;45.190;5.732;2022-09-09T02:32:45;99037.09;;;21.09;73.38
15670;BME280;18524;45.190;5.732;2022-09-09T02:37:41;99032.38;;;20.83;74.29
15670;BME280;18524;45.190;5.732;2022-09-09T02:42:32;99029.81;;;20.97;74.06
15670;BME280;18524;45.190;5.732;2022-09-09T02:47:35;99028.31;;;20.87;74.26
15670;BME280;18524;45.190;5.732;2022-09-09T02:57:50;99036.94;;;20.89;75.17
15670;BME280;18524;45.190;5.732;2022-09-09T03:02:42;99033.00;;;20.64;75.61
15670;BME280;18524;45.190;5.732;2022-09-09T03:07:32;99029.22;;;20.37;77.57
15670;BME280;18524;45.190;5.732;2022-09-09T03:12:22;99041.19;;;20.26;77.92
15670;BME280;18524;45.190;5.732;2022-09-09T03:17:13;99042.31;;;20.17;79.04
15670;BME280;18524;45.190;5.732;2022-09-09T03:22:03;99041.69;;;20.15;79.22
15670;BME280;18524;45.190;5.732;2022-09-09T03:26:57;99038.41;;;20.13;78.20
15670;BME280;18524;45.190;5.732;2022-09-09T03:31:47;99040.31;;;20.19;77.74
15670;BME280;18524;45.190;5.732;2022-09-09T03:36:37;99040.22;;;20.13;76.42
15670;BME280;18524;45.190;5.732;2022-09-09T03:41:28;99054.13;;;20.29;76.48
15670;BME280;18524;45.190;5.732;2022-09-09T03:46:20;99061.88;;;20.24;74.78
15670;BME280;18524;45.190;5.732;2022-09-09T03:51:11;99064.91;;;20.21;75.16
15670;BME280;18524;45.190;5.732;2022-09-09T03:56:01;99064.28;;;20.19;75.67
15670;BME280;18524;45.190;5.732;2022-09-09T04:00:57;99071.88;;;20.22;76.43
15670;BME280;18524;45.190;5.732;2022-09-09T04:05:55;99063.84;;;20.52;76.32
15670;BME280;18524;45.190;5.732;2022-09-09T04:10:48;99068.06;;;21.10;73.72
15670;BME280;18524;45.190;5.732;2022-09-09T04:15:38;99060.47;;;21.07;73.44
15670;BME280;18524;45.190;5.732;2022-09-09T04:20:28;99062.53;;;20.84;74.00
15670;BME280;18524;45.190;5.732;2022-09-09T04:25:20;99063.91;;;20.58;74.43
15670;BME280;18524;45.190;5.732;2022-09-09T04:30:10;99066.50;;;20.37;74.14
15670;BME280;18524;45.190;5.732;2022-09-09T04:35:02;99071.63;;;20.17;76.58
15670;BME280;18524;45.190;5.732;2022-09-09T04:39:53;99081.00;;;20.13;75.98
15670;BME280;18524;45.190;5.732;2022-09-09T04:44:43;99078.34;;;20.13;74.87
15670;BME280;18524;45.190;5.732;2022-09-09T04:49:34;99081.75;;;20.07;74.30
15670;BME280;18524;45.190;5.732;2022-09-09T04:54:24;99082.75;;;19.91;74.23
15670;BME280;18524;45.190;5.732;2022-09-09T04:59:15;99083.78;;;19.76;73.80
15670;BME280;18524;45.190;5.732;2022-09-09T05:04:05;99092.03;;;19.81;73.41
15670;BME280;18524;45.190;5.732;2022-09-09T05:08:56;99090.03;;;19.83;74.50
15670;BME280;18524;45.190;5.732;2022-09-09T05:13:48;99091.75;;;19.90;75.20
15670;BME280;18524;45.190;5.732;2022-09-09T05:18:40;99106.09;;;19.75;74.06
15670;BME280;18524;45.190;5.732;2022-09-09T05:23:33;99112.41;;;19.74;73.24
15670;BME280;18524;45.190;5.732;2022-09-09T05:28:24;99111.03;;;19.78;74.94
15670;BME280;18524;45.190;5.732;2022-09-09T05:33:18;99118.28;;;19.84;73.46
15670;BME280;18524;45.190;5.732;2022-09-09T05:38:08;99123.06;;;19.74;73.66
15670;BME280;18524;45.190;5.732;2022-09-09T05:42:59;99130.22;;;19.73;74.52
15670;BME280;18524;45.190;5.732;2022-09-09T05:47:51;99137.00;;;19.76;74.54
15670;BME280;18524;45.190;5.732;2022-09-09T05:52:43;99131.56;;;19.69;72.83
15670;BME280;18524;45.190;5.732;2022-09-09T05:57:35;99133.22;;;19.99;73.46
15670;BME280;18524;45.190;5.732;2022-09-09T06:02:26;99143.06;;;19.99;72.55
15670;BME280;18524;45.190;5.732;2022-09-09T06:07:16;99137.09;;;19.82;71.75
15670;BME280;18524;45.190;5.732;2022-09-09T06:12:07;99129.56;;;19.71;72.29
15670;BME280;18524;45.190;5.732;2022-09-09T06:16:57;99142.69;;;19.87;74.85
15670;BME280;18524;45.190;5.732;2022-09-09T06:21:48;99144.69;;;20.29;73.18
15670;BME280;18524;45.190;5.732;2022-09-09T06:26:39;99152.03;;;20.93;68.94
15670;BME280;18524;45.190;5.732;2022-09-09T06:31:33;99128.88;;;21.64;66.96
15670;BME280;18524;45.190;5.732;2022-09-09T06:36:29;99132.03;;;22.09;63.56
15670;BME280;18524;45.190;5.732;2022-09-09T06:41:21;99136.31;;;22.51;62.16
15670;BME280;18524;45.190;5.732;2022-09-09T06:46:16;99138.53;;;22.89;60.17
15670;BME280;18524;45.190;5.732;2022-09-09T06:51:16;99156.47;;;23.21;59.72
15670;BME280;18524;45.190;5.732;2022-09-09T07:01:06;99139.44;;;23.55;57.36
15670;BME280;18524;45.190;5.732;2022-09-09T07:05:57;99154.84;;;23.80;56.96
15670;BME280;18524;45.190;5.732;2022-09-09T07:10:47;99152.75;;;24.01;55.65
15670;BME280;18524;45.190;5.732;2022-09-09T07:15:38;99136.81;;;24.33;55.92
15670;BME280;18524;45.190;5.732;2022-09-09T07:20:28;99139.13;;;24.68;53.77
15670;BME280;18524;45.190;5.732;2022-09-09T07:25:18;99146.25;;;24.80;53.25
15670;BME280;18524;45.190;5.732;2022-09-09T07:30:11;99146.97;;;25.07;52.87
15670;BME280;18524;45.190;5.732;2022-09-09T07:35:01;99134.84;;;25.30;52.03
15670;BME280;18524;45.190;5.732;2022-09-09T07:39:51;99137.28;;;25.56;50.78
15670;BME280;18524;45.190;5.732;2022-09-09T07:44:42;99139.16;;;25.80;50.19
15670;BME280;18524;45.190;5.732;2022-09-09T07:49:32;99143.66;;;26.05;49.91
15670;BME280;18524;45.190;5.732;2022-09-09T07:54:23;99143.50;;;26.18;49.04
15670;BME280;18524;45.190;5.732;2022-09-09T07:59:13;99132.59;;;26.13;48.80
15670;BME280;18524;45.190;5.732;2022-09-09T08:04:10;99133.03;;;26.28;47.94
15670;BME280;18524;45.190;5.732;2022-09-09T08:09:07;99125.75;;;26.65;46.83
15670;BME280;18524;45.190;5.732;2022-09-09T08:13:57;99128.22;;;26.97;46.14
15670;BME280;18524;45.190;5.732;2022-09-09T08:18:52;99129.53;;;27.06;45.79
15670;BME280;18524;45.190;5.732;2022-09-09T08:23:45;99120.94;;;27.16;44.28
15670;BME280;18524;45.190;5.732;2022-09-09T08:28:35;99128.44;;;27.37;44.79
15670;BME280;18524;45.190;5.732;2022-09-09T08:33:26;99143.94;;;27.53;44.11
15670;BME280;18524;45.190;5.732;2022-09-09T08:38:16;99135.63;;;27.78;43.58
15670;BME280;18524;45.190;5.732;2022-09-09T08:43:06;99133.16;;;28.00;43.43
15670;BME280;18524;45.190;5.732;2022-09-09T08:48:32;99135.66;;;27.90;42.24
15670;BME280;18524;45.190;5.732;2022-09-09T08:53:37;99136.78;;;28.06;42.75
15670;BME280;18524;45.190;5.732;2022-09-09T08:58:32;99135.19;;;28.45;42.15
15670;BME280;18524;45.190;5.732;2022-09-09T09:08:45;99129.50;;;28.58;40.47
15670;BME280;18524;45.190;5.732;2022-09-09T09:18:43;99129.41;;;29.26;37.75
15670;BME280;18524;45.190;5.732;2022-09-09T09:23:44;99120.34;;;29.66;35.24
15670;BME280;18524;45.190;5.732;2022-09-09T09:28:36;99108.44;;;29.84;33.94
15670;BME280;18524;45.190;5.732;2022-09-09T09:38:25;99105.72;;;30.23;32.05
15670;BME280;18524;45.190;5.732;2022-09-09T09:43:24;99102.63;;;30.36;32.87
15670;BME280;18524;45.190;5.732;2022-09-09T09:48:15;99112.75;;;30.24;33.12
15670;BME280;18524;45.190;5.732;2022-09-09T09:53:16;99110.22;;;30.39;33.13
15670;BME280;18524;45.190;5.732;2022-09-09T09:58:15;99108.28;;;30.83;31.78
15670;BME280;18524;45.190;5.732;2022-09-09T10:03:22;99096.59;;;31.09;31.08
15670;BME280;18524;45.190;5.732;2022-09-09T10:08:15;99089.00;;;31.38;30.82
15670;BME280;18524;45.190;5.732;2022-09-09T10:18:35;99083.09;;;31.89;30.51
15670;BME280;18524;45.190;5.732;2022-09-09T10:23:49;99084.78;;;32.00;30.19
15670;BME280;18524;45.190;5.732;2022-09-09T10:28:49;99079.97;;;32.22;29.94
15670;BME280;18524;45.190;5.732;2022-09-09T10:39:05;99089.59;;;32.40;28.69
15670;BME280;18524;45.190;5.732;2022-09-09T10:55:08;99077.25;;;32.12;32.97
15670;BME280;18524;45.190;5.732;2022-09-09T11:00:30;99077.41;;;32.63;30.47
15670;BME280;18524;45.190;5.732;2022-09-09T11:05:22;99062.47;;;32.60;28.83
15670;BME280;18524;45.190;5.732;2022-09-09T11:15:19;99058.44;;;32.88;28.34
15670;BME280;18524;45.190;5.732;2022-09-09T11:20:13;99056.28;;;33.16;29.25
15670;BME280;18524;45.190;5.732;2022-09-09T11:25:24;99051.09;;;33.04;27.81
15670;BME280;18524;45.190;5.732;2022-09-09T11:30:29;99055.44;;;32.75;30.50
15670;BME280;18524;45.190;5.732;2022-09-09T11:40:35;99047.31;;;32.95;28.70
15670;BME280;18524;45.190;5.732;2022-09-09T11:45:27;99053.00;;;33.29;29.30
15670;BME280;18524;45.190;5.732;2022-09-09T12:00:36;99063.63;;;33.46;27.17
15670;BME280;18524;45.190;5.732;2022-09-09T12:05:45;99065.50;;;33.30;25.89
15670;BME280;18524;45.190;5.732;2022-09-09T12:10:39;99062.53;;;33.21;25.87
15670;BME280;18524;45.190;5.732;2022-09-09T12:15:30;99062.53;;;33.11;26.71
15670;BME280;18524;45.190;5.732;2022-09-09T12:30:14;99054.94;;;33.13;25.01
15670;BME280;18524;45.190;5.732;2022-09-09T12:35:20;99056.28;;;32.80;24.90
15670;BME280;18524;45.190;5.732;2022-09-09T12:45:22;99051.19;;;32.16;26.30
15670;BME280;18524;45.190;5.732;2022-09-09T12:50:17;99049.81;;;32.09;26.49
15670;BME280;18524;45.190;5.732;2022-09-09T12:55:16;99046.03;;;32.10;29.40
15670;BME280;18524;45.190;5.732;2022-09-09T13:00:15;99039.84;;;31.67;30.12
15670;BME280;18524;45.190;5.732;2022-09-09T13:05:15;99040.81;;;31.51;28.62
15670;BME280;18524;45.190;5.732;2022-09-09T13:10:11;99044.88;;;31.11;29.12
15670;BME280;18524;45.190;5.732;2022-09-09T13:15:02;99032.84;;;30.65;29.10
15670;BME280;18524;45.190;5.732;2022-09-09T13:19:52;99041.69;;;30.33;29.44
15670;BME280;18524;45.190;5.732;2022-09-09T13:24:43;99036.66;;;29.98;28.31
15670;BME280;18524;45.190;5.732;2022-09-09T13:29:33;99031.69;;;29.68;27.74
15670;BME280;18524;45.190;5.732;2022-09-09T13:34:30;99037.22;;;29.40;27.22
15670;BME280;18524;45.190;5.732;2022-09-09T13:39:20;99031.59;;;29.24;28.83
15670;BME280;18524;45.190;5.732;2022-09-09T13:44:22;99028.00;;;29.19;28.73
15670;BME280;18524;45.190;5.732;2022-09-09T13:54:06;99045.66;;;28.93;27.64
15670;BME280;18524;45.190;5.732;2022-09-09T13:58:56;99040.31;;;28.81;27.48
15670;BME280;18524;45.190;5.732;2022-09-09T14:03:48;99043.34;;;28.68;28.14
15670;BME280;18524;45.190;5.732;2022-09-09T14:08:38;99037.63;;;28.64;29.09
15670;BME280;18524;45.190;5.732;2022-09-09T14:13:30;99039.03;;;28.55;29.64
15670;BME280;18524;45.190;5.732;2022-09-09T14:18:20;99042.16;;;28.47;29.46
15670;BME280;18524;45.190;5.732;2022-09-09T14:23:12;99042.63;;;28.44;27.68
15670;BME280;18524;45.190;5.732;2022-09-09T14:28:03;99045.25;;;28.39;28.83
15670;BME280;18524;45.190;5.732;2022-09-09T14:32:53;99038.94;;;28.22;30.36
15670;BME280;18524;45.190;5.732;2022-09-09T14:37:43;99045.53;;;28.26;27.35
15670;BME280;18524;45.190;5.732;2022-09-09T14:42:34;99042.00;;;28.14;28.55
15670;BME280;18524;45.190;5.732;2022-09-09T14:47:25;99041.09;;;28.08;31.39
15670;BME280;18524;45.190;5.732;2022-09-09T14:52:16;99041.88;;;28.20;28.60
15670;BME280;18524;45.190;5.732;2022-09-09T14:57:07;99030.69;;;28.00;28.45
15670;BME280;18524;45.190;5.732;2022-09-09T15:01:57;99045.13;;;27.94;28.48
15670;BME280;18524;45.190;5.732;2022-09-09T15:06:48;99035.91;;;27.78;30.59
15670;BME280;18524;45.190;5.732;2022-09-09T15:11:40;99040.38;;;27.73;31.95
15670;BME280;18524;45.190;5.732;2022-09-09T15:16:31;99036.16;;;27.65;30.30
15670;BME280;18524;45.190;5.732;2022-09-09T15:21:24;99034.75;;;27.62;31.97
15670;BME280;18524;45.190;5.732;2022-09-09T15:26:15;99042.94;;;27.67;30.78
15670;BME280;18524;45.190;5.732;2022-09-09T15:35:59;99025.34;;;27.77;30.08
15670;BME280;18524;45.190;5.732;2022-09-09T15:40:54;99015.63;;;27.76;31.59
15670;BME280;18524;45.190;5.732;2022-09-09T15:45:46;99026.19;;;27.65;32.70
15670;BME280;18524;45.190;5.732;2022-09-09T15:50:39;99008.41;;;27.64;33.13
15670;BME280;18524;45.190;5.732;2022-09-09T15:55:29;99012.84;;;27.59;32.67
15670;BME280;18524;45.190;5.732;2022-09-09T16:00:19;99013.53;;;27.54;31.27
15670;BME280;18524;45.190;5.732;2022-09-09T16:05:10;99008.84;;;27.50;33.11
15670;BME280;18524;45.190;5.732;2022-09-09T16:10:00;99008.63;;;27.51;33.60
15670;BME280;18524;45.190;5.732;2022-09-09T16:14:50;99009.66;;;27.50;34.88
15670;BME280;18524;45.190;5.732;2022-09-09T16:19:41;99004.28;;;27.38;32.58
15670;BME280;18524;45.190;5.732;2022-09-09T16:24:31;98994.13;;;27.29;33.15
15670;BME280;18524;45.190;5.732;2022-09-09T16:29:22;99000.22;;;27.24;36.33
15670;BME280;18524;45.190;5.732;2022-09-09T16:34:15;98992.72;;;27.15;33.47
15670;BME280;18524;45.190;5.732;2022-09-09T16:39:08;99006.13;;;26.91;31.16
15670;BME280;18524;45.190;5.732;2022-09-09T16:44:04;99011.06;;;26.83;34.65
15670;BME280;18524;45.190;5.732;2022-09-09T16:48:57;99000.13;;;26.66;34.30
15670;BME280;18524;45.190;5.732;2022-09-09T16:53:51;99011.44;;;26.56;34.85
15670;BME280;18524;45.190;5.732;2022-09-09T16:58:42;99016.59;;;26.58;35.15
15670;BME280;18524;45.190;5.732;2022-09-09T17:03:36;99013.31;;;26.56;35.35
15670;BME280;18524;45.190;5.732;2022-09-09T17:08:30;99014.84;;;26.52;36.73
15670;BME280;18524;45.190;5.732;2022-09-09T17:13:20;99010.25;;;26.40;35.68
15670;BME280;18524;45.190;5.732;2022-09-09T17:18:12;99016.22;;;26.24;34.62
15670;BME280;18524;45.190;5.732;2022-09-09T17:23:02;99014.09;;;26.14;34.32
15670;BME280;18524;45.190;5.732;2022-09-09T17:27:53;99020.97;;;26.10;35.30
15670;BME280;18524;45.190;5.732;2022-09-09T17:32:43;99016.28;;;26.06;35.31
15670;BME280;18524;45.190;5.732;2022-09-09T17:37:34;99022.75;;;25.98;35.79
15670;BME280;18524;45.190;5.732;2022-09-09T17:42:24;99026.66;;;25.84;35.20
15670;BME280;18524;45.190;5.732;2022-09-09T17:47:15;99025.03;;;25.83;36.37
15670;BME280;18524;45.190;5.732;2022-09-09T17:52:05;99021.28;;;25.84;37.91
15670;BME280;18524;45.190;5.732;2022-09-09T17:56:55;99028.47;;;25.72;37.19
15670;BME280;18524;45.190;5.732;2022-09-09T18:01:47;99020.28;;;25.60;37.46
15670;BME280;18524;45.190;5.732;2022-09-09T18:06:44;99024.97;;;25.46;36.31
15670;BME280;18524;45.190;5.732;2022-09-09T18:11:41;99028.41;;;25.35;36.59
15670;BME280;18524;45.190;5.732;2022-09-09T18:16:33;99032.97;;;25.35;38.55
15670;BME280;18524;45.190;5.732;2022-09-09T18:21:25;99045.34;;;25.36;39.05
15670;BME280;18524;45.190;5.732;2022-09-09T18:26:19;99058.09;;;25.40;39.17
15670;BME280;18524;45.190;5.732;2022-09-09T18:31:11;99053.09;;;25.44;39.59
15670;BME280;18524;45.190;5.732;2022-09-09T18:36:15;99063.84;;;25.44;38.29
15670;BME280;18524;45.190;5.732;2022-09-09T18:41:27;99067.72;;;25.48;40.54
15670;BME280;18524;45.190;5.732;2022-09-09T18:46:18;99079.22;;;25.37;39.38
15670;BME280;18524;45.190;5.732;2022-09-09T18:51:09;99078.84;;;25.27;38.38
15670;BME280;18524;45.190;5.732;2022-09-09T18:56:01;99088.41;;;25.22;39.62
15670;BME280;18524;45.190;5.732;2022-09-09T19:00:52;99096.84;;;25.26;42.29
15670;BME280;18524;45.190;5.732;2022-09-09T19:05:42;99100.28;;;25.08;38.64
15670;BME280;18524;45.190;5.732;2022-09-09T19:10:36;99109.06;;;24.90;38.46
15670;BME280;18524;45.190;5.732;2022-09-09T19:15:26;99107.81;;;24.93;41.52
15670;BME280;18524;45.190;5.732;2022-09-09T19:20:18;99113.94;;;24.69;38.73
15670;BME280;18524;45.190;5.732;2022-09-09T19:25:12;99127.22;;;24.57;38.94
15670;BME280;18524;45.190;5.732;2022-09-09T19:30:03;99133.41;;;24.51;40.39
15670;BME280;18524;45.190;5.732;2022-09-09T19:34:53;99140.03;;;24.48;41.29
15670;BME280;18524;45.190;5.732;2022-09-09T19:39:45;99132.41;;;24.45;41.78
15670;BME280;18524;45.190;5.732;2022-09-09T19:44:35;99139.66;;;24.38;42.17
15670;BME280;18524;45.190;5.732;2022-09-09T19:49:25;99153.53;;;24.22;40.68
15670;BME280;18524;45.190;5.732;2022-09-09T19:54:16;99151.06;;;24.07;40.47
15670;BME280;18524;45.190;5.732;2022-09-09T19:59:07;99155.19;;;24.16;42.23
15670;BME280;18524;45.190;5.732;2022-09-09T20:04:01;99170.03;;;24.19;42.90
15670;BME280;18524;45.190;5.732;2022-09-09T20:08:54;99193.94;;;24.20;42.56
15670;BME280;18524;45.190;5.732;2022-09-09T20:13:46;99195.16;;;24.38;41.79
15670;BME280;18524;45.190;5.732;2022-09-09T20:18:40;99201.53;;;24.37;41.88
15670;BME280;18524;45.190;5.732;2022-09-09T20:23:32;99199.09;;;24.22;41.97
15670;BME280;18524;45.190;5.732;2022-09-09T20:28:23;99204.25;;;24.23;43.28
15670;BME280;18524;45.190;5.732;2022-09-09T20:33:13;99200.53;;;24.18;42.34
15670;BME280;18524;45.190;5.732;2022-09-09T20:38:04;99199.91;;;24.22;43.70
15670;BME280;18524;45.190;5.732;2022-09-09T20:42:55;99219.09;;;24.06;43.79
15670;BME280;18524;45.190;5.732;2022-09-09T20:47:45;99225.91;;;24.02;44.60
15670;BME280;18524;45.190;5.732;2022-09-09T20:52:35;99232.09;;;23.76;45.33
15670;BME280;18524;45.190;5.732;2022-09-09T20:57:26;99232.09;;;23.76;45.53
15670;BME280;18524;45.190;5.732;2022-09-09T21:02:16;99240.97;;;23.57;44.79
15670;BME280;18524;45.190;5.732;2022-09-09T21:07:07;99240.09;;;23.50;45.72
15670;BME280;18524;45.190;5.732;2022-09-09T21:11:57;99246.69;;;23.54;45.45
15670;BME280;18524;45.190;5.732;2022-09-09T21:16:48;99238.50;;;23.62;46.17
15670;BME280;18524;45.190;5.732;2022-09-09T21:21:38;99247.34;;;23.56;45.12
15670;BME280;18524;45.190;5.732;2022-09-09T21:26:29;99258.88;;;23.56;45.91
15670;BME280;18524;45.190;5.732;2022-09-09T21:31:19;99261.31;;;23.45;45.71
15670;BME280;18524;45.190;5.732;2022-09-09T21:36:11;99261.72;;;23.55;46.62
15670;BME280;18524;45.190;5.732;2022-09-09T21:41:03;99261.72;;;23.48;46.23
15670;BME280;18524;45.190;5.732;2022-09-09T21:45:54;99256.75;;;23.38;45.86
15670;BME280;18524;45.190;5.732;2022-09-09T21:50:46;99256.75;;;23.38;47.79
15670;BME280;18524;45.190;5.732;2022-09-09T21:55:38;99272.44;;;23.55;46.25
15670;BME280;18524;45.190;5.732;2022-09-09T22:00:32;99280.25;;;23.43;47.26
15670;BME280;18524;45.190;5.732;2022-09-09T22:05:22;99280.06;;;23.45;46.77
15670;BME280;18524;45.190;5.732;2022-09-09T22:10:13;99296.75;;;23.47;45.89
15670;BME280;18524;45.190;5.732;2022-09-09T22:15:04;99306.22;;;23.49;47.30
15670;BME280;18524;45.190;5.732;2022-09-09T22:19:56;99306.63;;;23.53;45.47
15670;BME280;18524;45.190;5.732;2022-09-09T22:24:47;99302.94;;;23.54;46.64
15670;BME280;18524;45.190;5.732;2022-09-09T22:29:41;99314.84;;;23.45;45.94
15670;BME280;18524;45.190;5.732;2022-09-09T22:34:32;99307.38;;;23.20;45.80
15670;BME280;18524;45.190;5.732;2022-09-09T22:39:24;99309.03;;;23.34;46.09
15670;BME280;18524;45.190;5.732;2022-09-09T22:44:14;99329.41;;;23.29;47.53
15670;BME280;18524;45.190;5.732;2022-09-09T22:49:04;99322.16;;;23.10;47.21
15670;BME280;18524;45.190;5.732;2022-09-09T22:53:55;99321.94;;;23.04;48.51
15670;BME280;18524;45.190;5.732;2022-09-09T22:58:47;99325.34;;;22.92;47.23
15670;BME280;18524;45.190;5.732;2022-09-09T23:03:42;99326.56;;;22.89;49.79
15670;BME280;18524;45.190;5.732;2022-09-09T23:08:36;99330.19;;;22.75;48.08
15670;BME280;18524;45.190;5.732;2022-09-09T23:13:27;99332.16;;;22.66;49.78
15670;BME280;18524;45.190;5.732;2022-09-09T23:18:19;99329.78;;;22.43;50.32
15670;BME280;18524;45.190;5.732;2022-09-09T23:23:13;99333.28;;;22.44;51.13
15670;BME280;18524;45.190;5.732;2022-09-09T23:28:03;99338.03;;;22.49;51.08
15670;BME280;18524;45.190;5.732;2022-09-09T23:32:54;99335.06;;;22.37;51.78
15670;BME280;18524;45.190;5.732;2022-09-09T23:37:44;99332.34;;;22.30;52.31
15670;BME280;18524;45.190;5.732;2022-09-09T23:42:35;99332.25;;;22.17;52.21
15670;BME280;18524;45.190;5.732;2022-09-09T23:47:25;99336.91;;;22.08;53.38
15670;BME280;18524;45.190;5.732;2022-09-09T23:52:17;99336.13;;;22.14;54.09
15670;BME280;18524;45.190;5.732;2022-09-09T23:57:07;99341.47;;;21.93;55.03
